Aviation Digital Data Service (ADDS)

Output produced by METARs form (0330 UTC 19 August 2019)
found at http://www.aviationweather.gov/metar/data/
 
Forecast for: ZSNJ (NANJING/LUKOU , CN)
Text: TAF ZSNJ 181902Z 1900/1924 07003MPS 5000 BR SCT040 TX32/1906Z TN23/1921Z
Forecast period: 0000 UTC 19 August 2019 to 0000 UTC 20 August 2019
Forecast type: FROM: standard forecast or significant change
Winds: from the ENE (70 degrees) at 7 MPH (6 knots; 3.1 m/s)
Visibility: 3 miles (5 km)
Ceiling: at least 12,000 feet AGL
Clouds: scattered clouds at 4000 feet AGL
Weather: BR  (mist)